DLH8PC EDDM-EDDK
Flight info
| Callsign | DLH8PC |
|---|---|
| Flight time | 0h 48m |
| Altitude | 32000 |
| Route | GIVMI6Q/08L GIVMI Y101 ERNAS T161 GOLMO DCT AKANU L603 RATIM DCT ASKIK T840 GULKO |
| Aircraft | A320/M-SDE3FGHIRWY/LB1 |
Departure
| Time | 2026-05-04 17:07 |
|---|---|
| Airport | Munich Airport (EDDM) |
Arrival
| Time | 2026-05-04 17:55 |
|---|---|
| Airport | Cologne Bonn Airport (EDDK) |
| Time | Latitude | Longitude | Altitude | Speed | Heading |
|---|---|---|---|---|---|
| 2026-05-04 16:26 | 48.35658 | 11.79713 | 1473 ft | 0 kts | 83° |
| 2026-05-04 16:55 | 48.35657 | 11.79713 | 1485 ft | 0 kts | 83° |
| 2026-05-04 16:56 | 48.35651 | 11.79644 | 1473 ft | 4 kts | 79° |
| 2026-05-04 16:56 | 48.35644 | 11.79597 | 1475 ft | 0 kts | 68° |
| 2026-05-04 16:57 | 48.35651 | 11.79561 | 1473 ft | 2 kts | 175° |
| 2026-05-04 16:58 | 48.35661 | 11.79560 | 1479 ft | 0 kts | 175° |
| 2026-05-04 17:00 | 48.35659 | 11.79560 | 1469 ft | 3 kts | 181° |
| 2026-05-04 17:01 | 48.35719 | 11.79414 | 1475 ft | 16 kts | 342° |
| 2026-05-04 17:01 | 48.35924 | 11.79352 | 1477 ft | 9 kts | 338° |
| 2026-05-04 17:02 | 48.35933 | 11.79348 | 1478 ft | 0 kts | 341° |
| 2026-05-04 17:03 | 48.35938 | 11.79346 | 1485 ft | 5 kts | 344° |
| 2026-05-04 17:03 | 48.36096 | 11.79258 | 1481 ft | 7 kts | 238° |
| 2026-05-04 17:04 | 48.36059 | 11.78874 | 1480 ft | 24 kts | 263° |
| 2026-05-04 17:04 | 48.36017 | 11.78323 | 1480 ft | 29 kts | 264° |
| 2026-05-04 17:05 | 48.35967 | 11.77679 | 1485 ft | 33 kts | 264° |
| 2026-05-04 17:05 | 48.35957 | 11.77042 | 1481 ft | 21 kts | 304° |
| 2026-05-04 17:06 | 48.36218 | 11.76943 | 1480 ft | 21 kts | 356° |
| 2026-05-04 17:06 | 48.36299 | 11.77052 | 1481 ft | 17 kts | 80° |
| 2026-05-04 17:07 | 48.36402 | 11.78394 | 1486 ft | 130 kts | 83° |
| 2026-05-04 17:07 | 48.36489 | 11.79410 | 1508 ft | 163 kts | 81° |
| 2026-05-04 17:07 | 48.36682 | 11.81679 | 2503 ft | 162 kts | 83° |
| 2026-05-04 17:07 | 48.36820 | 11.83401 | 3085 ft | 176 kts | 83° |
| 2026-05-04 17:08 | 48.37054 | 11.85305 | 3491 ft | 194 kts | 69° |
| 2026-05-04 17:08 | 48.39544 | 11.87239 | 4300 ft | 240 kts | 1° |
| 2026-05-04 17:08 | 48.41278 | 11.86994 | 4883 ft | 261 kts | 345° |
| 2026-05-04 17:09 | 48.42869 | 11.85575 | 5601 ft | 277 kts | 314° |
| 2026-05-04 17:09 | 48.44104 | 11.83310 | 6530 ft | 281 kts | 306° |
| 2026-05-04 17:09 | 48.45288 | 11.80969 | 7524 ft | 282 kts | 306° |
| 2026-05-04 17:10 | 48.47748 | 11.76248 | 9412 ft | 290 kts | 306° |
| 2026-05-04 17:10 | 48.51690 | 11.69150 | 12028 ft | 302 kts | 307° |
| 2026-05-04 17:11 | 48.53065 | 11.66723 | 12862 ft | 307 kts | 307° |
| 2026-05-04 17:11 | 48.54463 | 11.64255 | 13682 ft | 312 kts | 307° |
| 2026-05-04 17:11 | 48.57329 | 11.59182 | 14869 ft | 332 kts | 307° |
| 2026-05-04 17:12 | 48.58870 | 11.56425 | 15030 ft | 355 kts | 307° |
| 2026-05-04 17:12 | 48.62190 | 11.50474 | 16044 ft | 374 kts | 307° |
| 2026-05-04 17:13 | 48.67278 | 11.41396 | 18181 ft | 383 kts | 307° |
| 2026-05-04 17:14 | 48.72487 | 11.32036 | 19928 ft | 392 kts | 307° |
| 2026-05-04 17:14 | 48.74249 | 11.28861 | 20504 ft | 396 kts | 307° |
| 2026-05-04 17:14 | 48.77811 | 11.22436 | 21699 ft | 400 kts | 307° |
| 2026-05-04 17:15 | 48.79604 | 11.19194 | 22259 ft | 403 kts | 307° |
| 2026-05-04 17:15 | 48.82634 | 11.13704 | 23172 ft | 407 kts | 307° |
| 2026-05-04 17:16 | 48.86293 | 11.07052 | 24130 ft | 413 kts | 307° |
| 2026-05-04 17:16 | 48.91866 | 10.96896 | 25435 ft | 421 kts | 307° |
| 2026-05-04 17:17 | 48.93721 | 10.93510 | 25859 ft | 424 kts | 307° |
| 2026-05-04 17:17 | 48.99441 | 10.83046 | 27144 ft | 430 kts | 307° |
| 2026-05-04 17:18 | 49.01355 | 10.79537 | 27559 ft | 432 kts | 307° |
| 2026-05-04 17:18 | 49.05178 | 10.72506 | 28368 ft | 436 kts | 306° |
| 2026-05-04 17:19 | 49.09056 | 10.65346 | 29122 ft | 440 kts | 306° |
| 2026-05-04 17:19 | 49.12976 | 10.58105 | 29822 ft | 445 kts | 306° |
| 2026-05-04 17:20 | 49.16932 | 10.50785 | 30434 ft | 449 kts | 306° |
| 2026-05-04 17:20 | 49.20910 | 10.43394 | 31077 ft | 450 kts | 306° |
| 2026-05-04 17:20 | 49.22897 | 10.39692 | 31465 ft | 449 kts | 306° |
| 2026-05-04 17:21 | 49.26856 | 10.32297 | 31959 ft | 447 kts | 306° |
| 2026-05-04 17:21 | 49.30748 | 10.25007 | 31991 ft | 439 kts | 306° |
| 2026-05-04 17:22 | 49.34594 | 10.17777 | 31978 ft | 437 kts | 305° |
| 2026-05-04 17:23 | 49.42285 | 10.03267 | 31976 ft | 445 kts | 305° |
| 2026-05-04 17:24 | 49.48177 | 9.92101 | 31975 ft | 450 kts | 305° |
| 2026-05-04 17:25 | 49.56043 | 9.77122 | 31987 ft | 450 kts | 304° |
| 2026-05-04 17:26 | 49.63844 | 9.62201 | 31291 ft | 440 kts | 304° |
| 2026-05-04 17:26 | 49.69490 | 9.51089 | 29346 ft | 437 kts | 298° |
| 2026-05-04 17:27 | 49.72527 | 9.42990 | 27993 ft | 434 kts | 296° |
| 2026-05-04 17:27 | 49.75516 | 9.34956 | 26691 ft | 428 kts | 296° |
| 2026-05-04 17:28 | 49.78459 | 9.27039 | 25438 ft | 421 kts | 296° |
| 2026-05-04 17:29 | 49.82770 | 9.15336 | 24034 ft | 415 kts | 296° |
| 2026-05-04 17:29 | 49.87538 | 9.04216 | 23839 ft | 420 kts | 316° |
| 2026-05-04 17:30 | 49.94389 | 8.95773 | 23070 ft | 417 kts | 319° |
| 2026-05-04 17:31 | 49.98936 | 8.90228 | 22530 ft | 414 kts | 319° |
| 2026-05-04 17:31 | 50.05624 | 8.81965 | 21740 ft | 409 kts | 318° |
| 2026-05-04 17:32 | 50.10056 | 8.76475 | 21219 ft | 405 kts | 318° |
| 2026-05-04 17:33 | 50.16627 | 8.68311 | 20471 ft | 400 kts | 318° |
| 2026-05-04 17:33 | 50.18797 | 8.65600 | 20224 ft | 399 kts | 318° |
| 2026-05-04 17:34 | 50.25255 | 8.57521 | 19499 ft | 395 kts | 318° |
| 2026-05-04 17:34 | 50.27399 | 8.54844 | 19260 ft | 393 kts | 318° |
| 2026-05-04 17:35 | 50.33778 | 8.46862 | 18557 ft | 390 kts | 318° |
| 2026-05-04 17:35 | 50.37987 | 8.41568 | 18076 ft | 386 kts | 318° |
| 2026-05-04 17:35 | 50.40078 | 8.38929 | 17968 ft | 385 kts | 318° |
| 2026-05-04 17:36 | 50.42166 | 8.36290 | 17995 ft | 386 kts | 318° |
| 2026-05-04 17:36 | 50.44259 | 8.33649 | 18007 ft | 387 kts | 318° |
| 2026-05-04 17:36 | 50.46361 | 8.30999 | 18002 ft | 388 kts | 318° |
| 2026-05-04 17:36 | 50.48464 | 8.28340 | 18002 ft | 388 kts | 318° |
| 2026-05-04 17:37 | 50.50564 | 8.25672 | 18001 ft | 388 kts | 317° |
| 2026-05-04 17:37 | 50.52664 | 8.23001 | 17629 ft | 388 kts | 318° |
| 2026-05-04 17:37 | 50.54756 | 8.20345 | 16952 ft | 388 kts | 318° |
| 2026-05-04 17:37 | 50.56874 | 8.17648 | 16168 ft | 392 kts | 318° |
| 2026-05-04 17:38 | 50.58975 | 8.14965 | 15646 ft | 387 kts | 318° |
| 2026-05-04 17:38 | 50.61064 | 8.12295 | 15088 ft | 385 kts | 318° |
| 2026-05-04 17:38 | 50.63138 | 8.09641 | 14524 ft | 384 kts | 319° |
| 2026-05-04 17:38 | 50.65204 | 8.06997 | 13955 ft | 382 kts | 319° |
| 2026-05-04 17:39 | 50.69311 | 8.01737 | 12768 ft | 377 kts | 319° |
| 2026-05-04 17:39 | 50.71338 | 7.99134 | 12191 ft | 374 kts | 318° |
| 2026-05-04 17:39 | 50.73350 | 7.96554 | 11618 ft | 371 kts | 318° |
| 2026-05-04 17:40 | 50.75247 | 7.93847 | 11020 ft | 365 kts | 309° |
| 2026-05-04 17:40 | 50.76730 | 7.90685 | 10746 ft | 351 kts | 299° |
| 2026-05-04 17:40 | 50.78032 | 7.87449 | 10667 ft | 347 kts | 300° |
| 2026-05-04 17:40 | 50.79321 | 7.84285 | 10581 ft | 335 kts | 300° |
| 2026-05-04 17:41 | 50.80564 | 7.81257 | 10457 ft | 322 kts | 300° |
| 2026-05-04 17:41 | 50.81758 | 7.78346 | 10335 ft | 309 kts | 299° |
| 2026-05-04 17:41 | 50.82902 | 7.75548 | 10211 ft | 298 kts | 299° |
| 2026-05-04 17:41 | 50.84011 | 7.72819 | 9965 ft | 292 kts | 299° |
| 2026-05-04 17:42 | 50.85096 | 7.70133 | 9894 ft | 289 kts | 298° |
| 2026-05-04 17:42 | 50.86175 | 7.67455 | 9674 ft | 288 kts | 298° |
| 2026-05-04 17:42 | 50.87251 | 7.64785 | 9429 ft | 287 kts | 298° |
| 2026-05-04 17:42 | 50.88321 | 7.62129 | 9191 ft | 286 kts | 298° |
| 2026-05-04 17:43 | 50.89385 | 7.59483 | 8950 ft | 284 kts | 298° |
| 2026-05-04 17:43 | 50.90444 | 7.56842 | 8720 ft | 284 kts | 298° |
| 2026-05-04 17:43 | 50.91501 | 7.54207 | 8497 ft | 283 kts | 298° |
| 2026-05-04 17:43 | 50.92562 | 7.51567 | 8249 ft | 284 kts | 298° |
| 2026-05-04 17:44 | 50.93621 | 7.48932 | 8008 ft | 283 kts | 298° |
| 2026-05-04 17:44 | 50.94675 | 7.46302 | 7793 ft | 282 kts | 298° |
| 2026-05-04 17:44 | 50.95724 | 7.43683 | 7573 ft | 281 kts | 298° |
| 2026-05-04 17:44 | 50.96770 | 7.41077 | 7376 ft | 280 kts | 298° |
| 2026-05-04 17:45 | 50.97810 | 7.38479 | 7164 ft | 278 kts | 298° |
| 2026-05-04 17:45 | 50.98831 | 7.35925 | 6956 ft | 278 kts | 298° |
| 2026-05-04 17:45 | 50.99863 | 7.33342 | 6778 ft | 276 kts | 298° |
| 2026-05-04 17:45 | 51.00880 | 7.30798 | 6541 ft | 269 kts | 298° |
| 2026-05-04 17:46 | 51.01867 | 7.28334 | 6352 ft | 260 kts | 298° |
| 2026-05-04 17:46 | 51.02819 | 7.25957 | 6144 ft | 251 kts | 298° |
| 2026-05-04 17:46 | 51.03734 | 7.23658 | 5960 ft | 242 kts | 297° |
| 2026-05-04 17:46 | 51.04631 | 7.21386 | 5767 ft | 247 kts | 298° |
| 2026-05-04 17:47 | 51.05551 | 7.19051 | 5584 ft | 250 kts | 298° |
| 2026-05-04 17:47 | 51.06477 | 7.16706 | 5391 ft | 250 kts | 298° |
| 2026-05-04 17:47 | 51.07293 | 7.14290 | 5209 ft | 246 kts | 288° |
| 2026-05-04 17:47 | 51.07718 | 7.11686 | 5069 ft | 241 kts | 274° |
| 2026-05-04 17:48 | 51.07747 | 7.09108 | 5007 ft | 228 kts | 262° |
| 2026-05-04 17:48 | 51.07646 | 7.06594 | 5009 ft | 228 kts | 263° |
| 2026-05-04 17:48 | 51.07554 | 7.04084 | 5012 ft | 227 kts | 263° |
| 2026-05-04 17:48 | 51.07463 | 7.01535 | 4595 ft | 237 kts | 263° |
| 2026-05-04 17:49 | 51.07367 | 6.98886 | 4129 ft | 243 kts | 264° |
| 2026-05-04 17:49 | 51.07271 | 6.96175 | 3674 ft | 248 kts | 264° |
| 2026-05-04 17:49 | 51.07164 | 6.93460 | 3467 ft | 239 kts | 260° |
| 2026-05-04 17:49 | 51.06645 | 6.91100 | 3401 ft | 220 kts | 231° |
| 2026-05-04 17:50 | 51.05445 | 6.89786 | 3333 ft | 208 kts | 195° |
| 2026-05-04 17:50 | 51.04045 | 6.89896 | 3252 ft | 203 kts | 160° |
| 2026-05-04 17:50 | 51.02916 | 6.91188 | 3172 ft | 199 kts | 140° |
| 2026-05-04 17:50 | 51.01921 | 6.92666 | 3081 ft | 193 kts | 140° |
| 2026-05-04 17:51 | 51.00948 | 6.94103 | 3005 ft | 189 kts | 141° |
| 2026-05-04 17:51 | 50.99982 | 6.95519 | 3003 ft | 189 kts | 141° |
| 2026-05-04 17:51 | 50.99018 | 6.96929 | 3009 ft | 188 kts | 141° |
| 2026-05-04 17:51 | 50.98051 | 6.98340 | 2899 ft | 189 kts | 140° |
| 2026-05-04 17:52 | 50.97084 | 6.99752 | 2686 ft | 189 kts | 140° |
| 2026-05-04 17:52 | 50.96122 | 7.01156 | 2463 ft | 185 kts | 140° |
| 2026-05-04 17:52 | 50.95187 | 7.02520 | 2203 ft | 179 kts | 140° |
| 2026-05-04 17:52 | 50.94285 | 7.03834 | 1945 ft | 172 kts | 138° |
| 2026-05-04 17:53 | 50.93446 | 7.05057 | 1765 ft | 153 kts | 141° |
| 2026-05-04 17:53 | 50.92703 | 7.06140 | 1526 ft | 138 kts | 139° |
| 2026-05-04 17:53 | 50.92006 | 7.07152 | 1355 ft | 134 kts | 138° |
| 2026-05-04 17:53 | 50.91314 | 7.08155 | 1151 ft | 135 kts | 138° |
| 2026-05-04 17:54 | 50.90622 | 7.09157 | 964 ft | 135 kts | 137° |
| 2026-05-04 17:54 | 50.89931 | 7.10161 | 776 ft | 135 kts | 137° |
| 2026-05-04 17:54 | 50.89243 | 7.11162 | 614 ft | 134 kts | 137° |
| 2026-05-04 17:54 | 50.88557 | 7.12165 | 413 ft | 134 kts | 137° |
| 2026-05-04 17:55 | 50.87873 | 7.13164 | 255 ft | 132 kts | 137° |
| 2026-05-04 17:55 | 50.87275 | 7.14029 | 244 ft | 95 kts | 137° |
| 2026-05-04 17:55 | 50.86950 | 7.14494 | 258 ft | 26 kts | 144° |
| 2026-05-04 17:55 | 50.86879 | 7.14423 | 260 ft | 14 kts | 276° |
| 2026-05-04 17:56 | 50.86896 | 7.14255 | 256 ft | 15 kts | 278° |
| 2026-05-04 17:56 | 50.86906 | 7.14165 | 255 ft | 7 kts | 286° |
| 2026-05-04 17:56 | 50.86920 | 7.14098 | 255 ft | 6 kts | 287° |
| 2026-05-04 17:56 | 50.86928 | 7.13944 | 250 ft | 22 kts | 285° |
| 2026-05-04 17:57 | 50.87040 | 7.13756 | 242 ft | 26 kts | 318° |
| 2026-05-04 17:57 | 50.87179 | 7.13552 | 237 ft | 29 kts | 317° |
| 2026-05-04 17:57 | 50.87331 | 7.13326 | 232 ft | 30 kts | 318° |
| 2026-05-04 17:57 | 50.87482 | 7.13114 | 232 ft | 29 kts | 317° |
| 2026-05-04 17:58 | 50.87633 | 7.12893 | 232 ft | 30 kts | 317° |
| 2026-05-04 17:58 | 50.87733 | 7.12746 | 232 ft | 29 kts | 317° |
| 2026-05-04 17:58 | 50.87903 | 7.12616 | 232 ft | 17 kts | 4° |
| 2026-05-04 17:58 | 50.87958 | 7.12559 | 232 ft | 14 kts | 317° |
| 2026-05-04 17:59 | 50.88023 | 7.12454 | 232 ft | 13 kts | 295° |
| 2026-05-04 17:59 | 50.88001 | 7.12393 | 232 ft | 4 kts | 222° |
| 2026-05-04 17:59 | 50.87980 | 7.12368 | 232 ft | 0 kts | 216° |